Time;durP1;ratioP1;P1;durP2;ratioP2;P2;SDS_P1;SDS_P2;PMS_P1;PMS_P2;Temp;Humidity;BMP_temperature;BMP_pressure;BME280_temperature;BME280_humidity;BME280_pressure;Samples;Min_cycle;Max_cycle;Signal;HPM_P1;HPM_P2
2022/01/06 00:04:05;;;;;;;3.55;0.98;;;4.30;99.90;;;;;;10336302;28;20100;-63
2022/01/06 00:09:08;;;;;;;5.13;0.88;;;4.30;99.90;;;;;;10336259;28;20554;-63
2022/01/06 00:14:19;;;;;;;3.58;0.88;;;4.40;99.90;;;;;;10339773;28;20054;-63
2022/01/06 00:24:41;;;;;;;3.20;1.15;;;4.30;99.90;;;;;;10335102;28;20508;-63
2022/01/06 00:29:43;;;;;;;2.65;0.95;;;4.20;99.90;;;;;;10354731;28;20077;-63
2022/01/06 00:34:44;;;;;;;3.40;0.80;;;4.20;99.90;;;;;;10342461;28;20103;-63
2022/01/06 00:39:46;;;;;;;3.13;1.00;;;4.20;99.90;;;;;;10349375;28;20096;-63
2022/01/06 00:44:48;;;;;;;3.88;0.90;;;4.30;99.90;;;;;;10345665;28;20120;-63
2022/01/06 00:49:49;;;;;;;2.83;0.60;;;4.30;99.90;;;;;;10346608;28;20116;-63
2022/01/06 00:54:51;;;;;;;2.13;0.75;;;4.30;99.90;;;;;;10342118;28;20124;-63
2022/01/06 00:59:52;;;;;;;1.27;0.50;;;4.30;99.90;;;;;;10346235;28;20104;-63
2022/01/06 01:04:54;;;;;;;4.30;1.48;;;4.30;99.90;;;;;;10348290;28;20045;-62
2022/01/06 01:09:56;;;;;;;4.93;0.50;;;4.50;99.90;;;;;;10347906;28;20045;-62
2022/01/06 01:15:06;;;;;;;2.47;0.50;;;4.60;99.90;;;;;;10344581;28;20065;-62
2022/01/06 01:20:08;;;;;;;6.07;0.40;;;4.50;99.90;;;;;;10342383;28;20058;-63
2022/01/06 01:25:10;;;;;;;1.30;0.47;;;4.50;99.90;;;;;;10346608;28;20422;-62
2022/01/06 01:30:14;;;;;;;3.70;0.40;;;4.40;99.90;;;;;;10338210;28;20108;-62
2022/01/06 01:35:16;;;;;;;3.83;0.90;;;4.30;99.90;;;;;;10346051;28;20497;-62
2022/01/06 01:40:18;;;;;;;4.82;1.02;;;4.40;99.90;;;;;;10347410;28;20558;-62
2022/01/06 01:45:27;;;;;;;6.90;0.50;;;4.40;99.90;;;;;;10345941;28;20049;-62
2022/01/06 01:50:28;;;;;;;5.18;0.82;;;4.40;99.90;;;;;;10340808;28;20073;-62
2022/01/06 01:55:35;;;;;;;8.13;0.70;;;4.50;99.90;;;;;;10345408;28;20457;-63
2022/01/06 02:00:37;;;;;;;2.97;0.57;;;4.50;99.90;;;;;;10345753;28;20061;-63
2022/01/06 02:05:39;;;;;;;5.93;1.10;;;4.60;99.90;;;;;;10342535;28;20111;-63
2022/01/06 02:10:40;;;;;;;2.10;0.43;;;4.70;99.90;;;;;;10342519;28;20078;-63
2022/01/06 02:15:42;;;;;;;4.03;0.60;;;4.40;99.90;;;;;;10344812;28;20406;-62
2022/01/06 02:20:44;;;;;;;4.30;0.50;;;4.10;99.90;;;;;;10343291;28;20050;-62
2022/01/06 02:25:46;;;;;;;3.60;0.30;;;3.90;99.90;;;;;;10344814;28;20042;-62
2022/01/06 02:30:50;;;;;;;3.45;0.40;;;3.70;99.90;;;;;;10339807;28;20128;-62
2022/01/06 02:35:54;;;;;;;1.88;0.70;;;3.60;99.90;;;;;;10344112;28;20109;-62
2022/01/06 02:40:55;;;;;;;2.97;0.40;;;3.50;99.90;;;;;;10341721;28;20085;-62
2022/01/06 02:45:57;;;;;;;2.10;0.55;;;3.50;99.90;;;;;;10342591;28;20073;-62
2022/01/06 02:50:59;;;;;;;5.47;0.60;;;3.50;99.90;;;;;;10338253;28;20124;-62
2022/01/06 02:56:01;;;;;;;4.68;0.60;;;3.60;99.90;;;;;;10341040;28;20050;-62
2022/01/06 03:01:15;;;;;;;5.93;0.55;;;3.70;99.90;;;;;;10344544;28;20042;-62
2022/01/06 03:06:17;;;;;;;4.88;0.90;;;3.80;99.90;;;;;;10337132;28;20062;-62
2022/01/06 03:11:25;;;;;;;3.55;0.60;;;3.80;99.90;;;;;;10343057;28;20054;-62
2022/01/06 03:16:26;;;;;;;6.72;0.60;;;3.70;99.90;;;;;;10337857;28;20060;-63
2022/01/06 03:21:29;;;;;;;4.32;1.25;;;3.70;99.90;;;;;;10340112;28;20053;-63
2022/01/06 03:26:30;;;;;;;6.20;0.55;;;3.70;99.90;;;;;;10343453;28;20050;-63
2022/01/06 03:31:32;;;;;;;2.47;0.43;;;3.60;99.90;;;;;;10339163;28;20049;-63
2022/01/06 03:36:35;;;;;;;4.50;0.45;;;3.60;99.90;;;;;;10345201;28;20060;-63
2022/01/06 03:41:37;;;;;;;6.25;0.60;;;3.60;99.90;;;;;;10340532;28;20046;-62
2022/01/06 03:46:39;;;;;;;5.68;1.75;;;3.80;99.90;;;;;;10345642;28;20057;-63
2022/01/06 03:51:40;;;;;;;3.30;1.25;;;3.70;99.90;;;;;;10335177;28;20544;-62
2022/01/06 03:56:42;;;;;;;1.48;0.50;;;3.80;99.90;;;;;;10340662;28;20038;-62
2022/01/06 04:01:46;;;;;;;5.25;1.08;;;3.70;99.90;;;;;;10346807;28;20057;-63
2022/01/06 04:06:47;;;;;;;4.95;0.95;;;3.70;99.90;;;;;;10351139;28;20057;-62
2022/01/06 04:11:49;;;;;;;4.63;0.73;;;3.60;99.90;;;;;;10349320;28;20053;-62
2022/01/06 04:16:58;;;;;;;5.35;0.85;;;3.50;99.90;;;;;;10350231;28;20085;-62
2022/01/06 04:22:00;;;;;;;0.80;0.55;;;3.40;99.90;;;;;;10347302;28;20134;-62
2022/01/06 04:27:04;;;;;;;2.58;0.45;;;3.30;99.90;;;;;;10344427;28;20049;-63
2022/01/06 04:32:06;;;;;;;6.53;0.52;;;3.20;99.90;;;;;;10343237;28;20046;-63
2022/01/06 04:37:08;;;;;;;6.28;0.68;;;3.10;99.90;;;;;;10348111;28;20065;-63
2022/01/06 04:42:09;;;;;;;4.13;0.70;;;3.00;99.90;;;;;;10349818;28;20132;-63
2022/01/06 04:47:11;;;;;;;6.47;0.93;;;2.90;99.90;;;;;;10349260;28;20046;-63
2022/01/06 04:52:13;;;;;;;4.63;0.80;;;2.80;99.90;;;;;;10355583;28;20138;-62
2022/01/06 04:57:15;;;;;;;6.60;0.82;;;2.80;99.90;;;;;;10348052;28;20125;-63
2022/01/06 05:02:17;;;;;;;3.80;0.55;;;2.80;99.90;;;;;;10349731;28;20077;-62
2022/01/06 05:07:18;;;;;;;7.40;0.90;;;2.80;99.90;;;;;;10342072;28;20038;-63
2022/01/06 05:12:21;;;;;;;5.93;0.77;;;2.80;99.90;;;;;;10348744;28;20115;-63
2022/01/06 05:17:23;;;;;;;12.18;1.25;;;2.90;99.90;;;;;;10345391;28;20148;-63
2022/01/06 05:22:25;;;;;;;6.55;1.80;;;2.90;99.90;;;;;;10344525;28;20075;-63
2022/01/06 05:27:27;;;;;;;3.33;0.88;;;2.90;99.90;;;;;;10346011;28;20084;-63
2022/01/06 05:32:29;;;;;;;8.43;1.10;;;2.80;99.90;;;;;;10343057;28;20489;-63
2022/01/06 05:37:30;;;;;;;5.63;0.95;;;2.70;99.90;;;;;;10347202;28;20073;-63
2022/01/06 05:42:32;;;;;;;8.43;1.67;;;2.70;99.90;;;;;;10343319;28;20084;-63
2022/01/06 05:47:34;;;;;;;5.72;2.47;;;2.90;99.90;;;;;;10346854;28;20648;-63
2022/01/06 05:52:36;;;;;;;11.43;1.38;;;2.90;99.90;;;;;;10344420;28;20074;-63
2022/01/06 05:57:37;;;;;;;5.20;1.60;;;3.00;99.90;;;;;;10341442;28;20050;-63
2022/01/06 06:02:39;;;;;;;7.80;2.05;;;3.10;99.90;;;;;;10345858;28;20500;-63
2022/01/06 06:07:41;;;;;;;13.60;2.28;;;3.20;99.90;;;;;;10340394;28;20458;-62
2022/01/06 06:12:42;;;;;;;8.52;1.05;;;3.20;99.90;;;;;;10345605;28;20053;-64
2022/01/06 06:17:48;;;;;;;9.82;0.95;;;3.30;99.90;;;;;;10345042;28;20056;-63
2022/01/06 06:22:49;;;;;;;5.57;1.13;;;3.30;99.90;;;;;;10343116;28;20123;-64
2022/01/06 06:27:51;;;;;;;10.82;1.48;;;3.30;99.90;;;;;;10339414;28;20542;-63
2022/01/06 06:32:53;;;;;;;8.13;1.50;;;3.30;99.90;;;;;;10343165;28;20077;-64
2022/01/06 06:37:55;;;;;;;6.28;1.85;;;3.30;99.90;;;;;;10345086;28;20042;-63
2022/01/06 06:42:56;;;;;;;11.55;1.55;;;3.20;99.90;;;;;;10343721;28;20143;-63
2022/01/06 06:47:58;;;;;;;2.65;0.93;;;3.30;99.90;;;;;;10342293;28;20053;-63
2022/01/06 06:53:02;;;;;;;7.05;1.00;;;3.30;99.90;;;;;;10342947;28;20120;-63
2022/01/06 06:58:04;;;;;;;5.57;1.15;;;3.40;99.90;;;;;;10341888;28;20485;-63
2022/01/06 07:03:05;;;;;;;7.18;1.23;;;3.30;99.90;;;;;;10341819;28;20197;-62
2022/01/06 07:08:07;;;;;;;6.40;0.90;;;3.20;99.90;;;;;;10341910;28;20145;-62
2022/01/06 07:13:09;;;;;;;6.90;1.33;;;3.10;99.90;;;;;;10346677;28;20057;-63
2022/01/06 07:18:11;;;;;;;5.50;1.55;;;3.10;99.90;;;;;;10341591;28;20039;-62
2022/01/06 07:23:15;;;;;;;4.88;0.82;;;3.00;99.90;;;;;;10340613;28;20049;-62
2022/01/06 07:28:16;;;;;;;7.35;1.38;;;3.00;99.90;;;;;;10342530;28;20100;-63
2022/01/06 07:33:18;;;;;;;7.30;1.25;;;3.00;99.90;;;;;;10340400;28;20111;-63
2022/01/06 07:38:20;;;;;;;6.28;1.00;;;2.90;99.90;;;;;;10334287;28;20065;-63
2022/01/06 07:43:23;;;;;;;3.63;0.90;;;2.90;99.90;;;;;;10340973;28;20485;-63
2022/01/06 07:48:29;;;;;;;6.00;1.48;;;2.80;99.90;;;;;;10341688;28;20497;-64
2022/01/06 07:53:31;;;;;;;3.63;1.23;;;2.90;99.90;;;;;;10336445;28;20077;-63
2022/01/06 07:58:33;;;;;;;5.53;1.48;;;2.80;99.90;;;;;;10336910;28;20475;-63
2022/01/06 08:03:34;;;;;;;6.25;1.48;;;2.80;99.90;;;;;;10336448;28;20050;-63
2022/01/06 08:08:36;;;;;;;6.40;1.38;;;2.80;99.90;;;;;;10338067;28;20058;-63
2022/01/06 08:13:39;;;;;;;11.13;1.30;;;2.90;99.90;;;;;;10331158;28;20505;-63
2022/01/06 08:18:41;;;;;;;10.55;1.55;;;2.90;99.90;;;;;;10337699;28;20069;-63
2022/01/06 08:23:42;;;;;;;6.32;1.13;;;3.00;99.90;;;;;;10340597;28;20133;-62
2022/01/06 08:28:49;;;;;;;8.70;1.55;;;3.10;99.90;;;;;;10332925;28;20069;-63
2022/01/06 08:33:51;;;;;;;11.25;1.55;;;3.30;99.90;;;;;;10342796;28;20050;-63
2022/01/06 08:38:53;;;;;;;4.10;1.45;;;3.30;99.90;;;;;;10338726;28;20069;-63
2022/01/06 08:43:54;;;;;;;15.98;1.77;;;3.20;99.90;;;;;;10340347;28;20138;-63
2022/01/06 08:48:57;;;;;;;4.97;1.30;;;3.20;99.90;;;;;;10342990;28;20041;-63
2022/01/06 08:53:59;;;;;;;11.70;1.60;;;3.30;99.90;;;;;;10341961;28;20077;-63
2022/01/06 08:59:01;;;;;;;7.90;1.38;;;3.30;99.90;;;;;;10353400;28;20101;-62
2022/01/06 09:04:03;;;;;;;10.75;1.88;;;3.30;99.90;;;;;;10346297;28;20132;-62
2022/01/06 09:09:05;;;;;;;8.57;1.20;;;3.40;99.90;;;;;;10349088;28;20452;-62
2022/01/06 09:14:07;;;;;;;11.70;3.08;;;3.40;99.90;;;;;;10353956;28;20096;-63
2022/01/06 09:19:08;;;;;;;11.15;1.80;;;3.50;99.90;;;;;;10346028;28;20061;-63
2022/01/06 09:24:11;;;;;;;8.90;2.28;;;3.60;99.90;;;;;;10344285;28;20100;-62
2022/01/06 09:29:13;;;;;;;11.95;1.88;;;3.80;99.90;;;;;;10344755;28;20073;-61
2022/01/06 09:34:15;;;;;;;7.22;1.95;;;3.80;99.90;;;;;;10352127;28;20370;-63
2022/01/06 09:39:16;;;;;;;7.85;1.63;;;3.80;99.90;;;;;;10344888;28;20104;-64
2022/01/06 09:44:18;;;;;;;4.90;2.05;;;3.80;99.90;;;;;;10345475;28;20061;-65
2022/01/06 09:49:37;;;;;;;9.68;1.55;;;3.80;99.90;;;;;;10348972;28;20057;-67
2022/01/06 09:54:41;;;;;;;4.80;2.20;;;3.90;99.90;;;;;;10340564;28;20049;-66
2022/01/06 09:59:44;;;;;;;12.10;2.50;;;4.00;99.90;;;;;;10346101;28;20116;-67
2022/01/06 10:04:57;;;;;;;7.18;1.40;;;4.20;99.90;;;;;;10345909;28;20046;-65
2022/01/06 10:10:05;;;;;;;7.28;2.13;;;4.30;99.90;;;;;;10344618;28;20055;-65
2022/01/06 10:15:28;;;;;;;3.45;1.27;;;4.50;99.90;;;;;;10337268;28;20492;-65
2022/01/06 10:20:29;;;;;;;7.95;1.38;;;4.60;99.90;;;;;;10335883;28;20050;-64
2022/01/06 10:25:38;;;;;;;12.13;2.33;;;4.70;99.90;;;;;;10348485;28;20045;-64
2022/01/06 10:30:54;;;;;;;4.80;0.98;;;4.80;99.90;;;;;;10347954;28;20128;-63
2022/01/06 10:36:04;;;;;;;2.90;0.80;;;4.90;98.30;;;;;;10346127;28;20082;-63
2022/01/06 10:41:14;;;;;;;6.82;0.90;;;4.90;97.10;;;;;;10337925;28;20081;-62
2022/01/06 10:46:27;;;;;;;7.55;1.13;;;4.90;98.10;;;;;;10344120;28;20061;-62
2022/01/06 10:51:34;;;;;;;2.28;1.10;;;4.90;95.50;;;;;;10338012;28;20046;-62
2022/01/06 10:56:36;;;;;;;9.90;2.63;;;5.00;96.80;;;;;;10340128;28;20139;-65
2022/01/06 11:01:38;;;;;;;13.98;1.20;;;5.00;95.70;;;;;;10337680;28;20046;-64
2022/01/06 11:06:40;;;;;;;7.72;1.05;;;5.10;96.20;;;;;;10336379;28;20049;-64
2022/01/06 11:12:26;;;;;;;3.63;1.25;;;5.10;96.30;;;;;;10345304;28;20050;-64
2022/01/06 11:17:05;;;;;;;9.32;1.45;;;5.20;95.60;;;;;;10337825;28;20061;-64
2022/01/06 11:22:09;;;;;;;6.50;0.90;;;5.40;97.00;;;;;;10341590;28;20049;-64
2022/01/06 11:27:11;;;;;;;4.88;0.95;;;5.60;94.60;;;;;;10343762;28;20069;-64
2022/01/06 11:32:21;;;;;;;10.82;2.25;;;5.70;94.40;;;;;;10339415;28;20100;-64
2022/01/06 11:37:23;;;;;;;4.72;1.02;;;5.60;93.90;;;;;;10346490;28;20081;-64
2022/01/06 11:42:25;;;;;;;5.68;1.23;;;5.60;93.10;;;;;;10338529;28;20050;-65
2022/01/06 11:47:30;;;;;;;6.53;1.27;;;5.70;93.20;;;;;;10341084;28;20058;-65
2022/01/06 11:52:31;;;;;;;6.07;1.55;;;5.90;91.50;;;;;;10346403;28;20050;-65
2022/01/06 11:57:35;;;;;;;6.40;1.10;;;5.90;89.70;;;;;;10341760;28;20077;-65
2022/01/06 12:02:37;;;;;;;12.43;1.33;;;5.70;88.20;;;;;;10341327;28;20092;-65
2022/01/06 12:07:51;;;;;;;14.65;2.05;;;5.60;90.10;;;;;;10341976;28;20125;-64
2022/01/06 12:13:00;;;;;;;3.33;0.73;;;5.60;90.70;;;;;;10345652;28;20123;-62
2022/01/06 12:18:02;;;;;;;8.60;1.17;;;5.60;90.60;;;;;;10338012;28;20111;-64
2022/01/06 12:23:05;;;;;;;5.05;0.90;;;5.60;91.40;;;;;;10348252;28;20129;-64
2022/01/06 12:28:10;;;;;;;2.85;0.98;;;5.60;88.90;;;;;;10346046;28;20054;-64
2022/01/06 12:33:14;;;;;;;4.78;1.48;;;5.70;89.90;;;;;;10348953;28;20053;-63
2022/01/06 12:38:23;;;;;;;6.00;1.42;;;5.80;88.70;;;;;;10350377;28;20461;-64
2022/01/06 12:43:27;;;;;;;5.57;1.08;;;6.00;87.40;;;;;;10345933;28;20127;-63
2022/01/06 12:48:50;;;;;;;8.48;1.05;;;6.00;85.50;;;;;;10345698;28;20136;-61
2022/01/06 12:54:22;;;;;;;5.78;0.85;;;6.00;85.10;;;;;;10343196;28;20137;-62
2022/01/06 12:59:34;;;;;;;4.82;0.85;;;6.10;84.80;;;;;;10336438;28;20054;-62
2022/01/06 13:04:38;;;;;;;8.27;0.70;;;6.10;84.00;;;;;;10342015;28;20062;-62
2022/01/06 13:09:41;;;;;;;5.88;1.40;;;6.10;85.40;;;;;;10344230;28;20436;-63
2022/01/06 13:14:46;;;;;;;6.03;0.90;;;6.00;83.80;;;;;;10346025;28;20057;-63
2022/01/06 13:20:10;;;;;;;6.32;1.17;;;5.90;85.00;;;;;;10348942;28;20492;-63
2022/01/06 13:25:13;;;;;;;5.40;0.68;;;5.80;85.60;;;;;;10340162;28;20056;-61
2022/01/06 13:30:15;;;;;;;6.53;1.50;;;5.70;85.50;;;;;;10345450;28;20076;-63
2022/01/06 13:35:16;;;;;;;5.43;0.90;;;5.70;85.40;;;;;;10345262;28;20074;-64
2022/01/06 13:40:18;;;;;;;6.60;1.05;;;5.80;85.50;;;;;;10346538;28;22903;-64
2022/01/06 13:45:31;;;;;;;9.52;1.10;;;5.80;84.70;;;;;;10347478;28;20089;-64
2022/01/06 13:56:10;;;;;;;;;;;5.80;85.60;;;;;;10338266;28;20074;-64
2022/01/06 14:01:21;;;;;;;4.38;0.80;;;5.70;88.60;;;;;;10343978;28;20643;-63
2022/01/06 14:06:28;;;;;;;4.05;1.15;;;5.70;88.60;;;;;;10341704;28;20105;-63
2022/01/06 14:11:29;;;;;;;8.55;1.20;;;5.70;90.00;;;;;;10339958;28;20129;-64
2022/01/06 14:16:32;;;;;;;3.88;0.80;;;5.60;87.80;;;;;;10341724;28;20133;-63
2022/01/06 14:21:34;;;;;;;8.63;1.10;;;5.50;88.30;;;;;;10342868;28;20061;-63
2022/01/06 14:26:35;;;;;;;11.52;1.17;;;5.40;88.40;;;;;;10341390;28;20053;-64
2022/01/06 14:31:37;;;;;;;5.95;1.08;;;5.30;89.70;;;;;;10346098;28;20619;-62
2022/01/06 14:36:39;;;;;;;8.40;0.90;;;5.20;90.40;;;;;;10340391;28;20077;-62
2022/01/06 14:41:41;;;;;;;10.82;1.02;;;5.10;90.60;;;;;;10342674;28;20516;-62
2022/01/06 14:46:43;;;;;;;6.85;1.10;;;5.10;90.90;;;;;;10342954;28;20081;-62
2022/01/06 14:51:47;;;;;;;7.93;1.02;;;5.00;90.60;;;;;;10342347;28;20901;-62
2022/01/06 14:56:49;;;;;;;7.75;1.70;;;4.90;90.50;;;;;;10342590;28;20562;-63
2022/01/06 15:01:50;;;;;;;8.23;2.08;;;4.80;91.00;;;;;;10332383;28;20058;-62
2022/01/06 15:06:52;;;;;;;9.02;1.42;;;4.70;91.00;;;;;;10338015;28;20050;-66
2022/01/06 15:11:55;;;;;;;11.70;1.25;;;4.70;91.50;;;;;;10341586;28;20074;-62
2022/01/06 15:16:57;;;;;;;7.18;0.80;;;4.60;91.80;;;;;;10341398;28;20120;-62
2022/01/06 15:21:58;;;;;;;7.25;1.00;;;4.50;92.20;;;;;;10342091;28;20050;-62
2022/01/06 15:27:00;;;;;;;5.60;1.23;;;4.40;92.60;;;;;;10338159;28;20104;-62
2022/01/06 15:32:03;;;;;;;6.53;2.20;;;4.30;93.30;;;;;;10342790;28;20057;-63
2022/01/06 15:37:05;;;;;;;7.47;0.82;;;4.30;93.80;;;;;;10338672;28;20119;-63
2022/01/06 15:42:07;;;;;;;3.53;1.40;;;4.10;95.10;;;;;;10341607;28;20045;-63
2022/01/06 15:47:09;;;;;;;6.22;1.23;;;4.20;99.90;;;;;;10338274;28;20145;-63
2022/01/06 15:52:10;;;;;;;6.60;1.80;;;4.00;99.00;;;;;;10338139;28;20052;-63
2022/01/06 15:57:12;;;;;;;4.80;1.30;;;3.70;99.90;;;;;;10343266;28;20054;-63
2022/01/06 16:07:34;;;;;;;11.15;2.33;;;3.40;99.90;;;;;;10348093;28;20050;-63
2022/01/06 16:12:40;;;;;;;8.43;1.88;;;3.20;99.90;;;;;;10349730;28;20042;-63
2022/01/06 16:17:42;;;;;;;12.20;2.08;;;3.00;99.90;;;;;;10347785;28;20056;-63
2022/01/06 16:22:44;;;;;;;14.43;3.40;;;3.00;99.90;;;;;;10349767;28;20045;-63
2022/01/06 16:27:45;;;;;;;12.93;3.90;;;2.70;99.90;;;;;;10347932;28;20045;-62
2022/01/06 16:32:47;;;;;;;15.85;3.45;;;2.60;99.90;;;;;;10347911;28;20053;-62
2022/01/06 16:37:49;;;;;;;8.43;2.08;;;2.40;99.90;;;;;;10348784;28;20049;-62
2022/01/06 16:42:51;;;;;;;7.65;2.30;;;2.30;99.90;;;;;;10342837;28;20606;-62
2022/01/06 16:47:53;;;;;;;10.27;3.45;;;2.20;99.90;;;;;;10345448;28;20570;-60
2022/01/06 16:52:56;;;;;;;10.88;3.15;;;2.10;99.90;;;;;;10345695;28;20100;-60
2022/01/06 16:57:58;;;;;;;14.43;3.58;;;2.00;99.90;;;;;;10345272;28;20069;-61
2022/01/06 17:03:01;;;;;;;23.17;3.42;;;1.80;99.90;;;;;;10346003;28;20046;-60
2022/01/06 17:08:03;;;;;;;25.75;8.90;;;1.70;99.90;;;;;;10346597;28;20538;-60
2022/01/06 17:19:21;;;;;;;19.15;4.30;;;1.50;99.90;;;;;;10342023;28;20085;-60
2022/01/06 17:24:23;;;;;;;23.35;6.28;;;1.40;99.90;;;;;;10347109;28;20061;-60
2022/01/06 17:29:25;;;;;;;11.45;4.25;;;1.30;99.90;;;;;;10344261;28;20078;-61
2022/01/06 17:34:47;;;;;;;12.07;4.28;;;1.30;99.90;;;;;;10343859;28;20396;-60
2022/01/06 17:39:48;;;;;;;20.52;6.78;;;1.20;99.90;;;;;;10346191;28;20089;-61
2022/01/06 17:44:50;;;;;;;20.83;6.53;;;1.10;99.90;;;;;;10343712;28;20481;-61
2022/01/06 17:49:52;;;;;;;6.40;2.47;;;1.00;99.90;;;;;;10343902;28;20112;-62
2022/01/06 17:54:54;;;;;;;16.00;4.20;;;0.90;99.90;;;;;;10341608;28;20137;-62
2022/01/06 17:59:56;;;;;;;10.35;4.13;;;0.80;99.90;;;;;;10344650;28;20049;-61
2022/01/06 18:05:01;;;;;;;14.90;4.45;;;0.80;99.90;;;;;;10347570;28;20085;-61
2022/01/06 18:15:24;;;;;;;23.17;7.03;;;0.70;99.90;;;;;;10343904;28;20635;-60
2022/01/06 18:20:26;;;;;;;22.27;6.07;;;0.70;99.90;;;;;;10336199;28;20042;-62
2022/01/06 18:25:28;;;;;;;21.80;6.43;;;0.60;99.90;;;;;;10340128;28;20547;-61
2022/01/06 18:30:30;;;;;;;26.80;6.57;;;0.50;99.90;;;;;;10343375;28;20045;-61
2022/01/06 18:35:32;;;;;;;16.58;6.53;;;0.50;99.90;;;;;;10339172;28;20123;-62
2022/01/06 18:40:33;;;;;;;18.08;5.07;;;0.40;99.90;;;;;;10340118;28;20069;-61
2022/01/06 18:45:35;;;;;;;17.75;5.47;;;0.30;99.90;;;;;;10340982;28;20464;-60
2022/01/06 18:50:40;;;;;;;26.08;8.30;;;0.30;99.90;;;;;;10340170;28;20111;-61
2022/01/06 18:55:43;;;;;;;25.02;8.70;;;0.30;99.90;;;;;;10347175;28;20076;-60
2022/01/06 19:00:45;;;;;;;19.23;6.72;;;0.20;99.90;;;;;;10337476;28;20050;-59
2022/01/06 19:05:47;;;;;;;28.38;11.25;;;0.20;99.90;;;;;;10323030;28;20047;-60
2022/01/06 19:10:49;;;;;;;18.20;8.35;;;0.10;99.90;;;;;;10339013;28;20509;-62
2022/01/06 19:15:53;;;;;;;17.80;6.90;;;0.10;99.90;;;;;;10343470;28;20050;-60
2022/01/06 19:20:56;;;;;;;26.65;8.27;;;0.10;99.90;;;;;;10339164;28;20050;-59
2022/01/06 19:25:59;;;;;;;28.20;9.05;;;0.00;99.90;;;;;;10341206;28;20111;-60
2022/01/06 19:31:04;;;;;;;38.65;12.95;;;0.00;99.90;;;;;;10339187;28;20077;-59
2022/01/06 19:36:07;;;;;;;43.08;14.32;;;-0.10;99.90;;;;;;10336622;28;20042;-61
2022/01/06 19:41:09;;;;;;;36.85;13.52;;;-0.10;99.90;;;;;;10341401;28;20045;-61
2022/01/06 19:46:11;;;;;;;23.90;8.02;;;-0.20;99.90;;;;;;10345777;28;20073;-59
2022/01/06 19:51:12;;;;;;;20.45;7.80;;;-0.30;99.90;;;;;;10340220;28;21063;-60
2022/01/06 19:56:15;;;;;;;19.50;6.82;;;-0.30;99.90;;;;;;10343352;28;20068;-60
2022/01/06 20:01:17;;;;;;;15.30;5.82;;;-0.30;99.90;;;;;;10342173;28;21005;-61
2022/01/06 20:06:18;;;;;;;18.52;5.88;;;-0.30;99.90;;;;;;10346026;28;20045;-59
2022/01/06 20:11:20;;;;;;;15.65;6.47;;;-0.30;99.90;;;;;;10336047;28;20089;-61
2022/01/06 20:16:22;;;;;;;20.25;8.30;;;-0.40;99.90;;;;;;10344961;28;20095;-60
2022/01/06 20:21:24;;;;;;;19.73;6.80;;;-0.40;99.90;;;;;;10343802;28;20564;-60
2022/01/06 20:26:26;;;;;;;21.58;7.45;;;-0.40;99.90;;;;;;10342751;28;20542;-60
2022/01/06 20:31:28;;;;;;;20.30;6.35;;;-0.40;99.90;;;;;;10341425;28;20133;-60
2022/01/06 20:36:46;;;;;;;22.75;8.35;;;-0.50;99.90;;;;;;10340929;28;20050;-61
2022/01/06 20:41:47;;;;;;;17.13;6.90;;;-0.50;99.90;;;;;;10329882;28;20057;-61
2022/01/06 20:46:57;;;;;;;22.00;6.97;;;-0.60;99.90;;;;;;10347483;28;20045;-60
2022/01/06 20:52:06;;;;;;;29.60;10.70;;;-0.60;99.90;;;;;;10345241;28;20477;-61
2022/01/06 20:57:09;;;;;;;34.83;11.00;;;-0.60;99.90;;;;;;10347577;28;20082;-60
2022/01/06 21:02:12;;;;;;;26.85;9.38;;;-0.60;99.90;;;;;;10340780;28;20049;-60
2022/01/06 21:07:14;;;;;;;23.27;8.35;;;-0.70;99.90;;;;;;10345777;28;20061;-63
2022/01/06 21:12:16;;;;;;;16.67;7.88;;;-0.70;99.90;;;;;;10352388;28;20045;-61
2022/01/06 21:17:18;;;;;;;21.27;7.63;;;-0.70;99.90;;;;;;10348358;28;20127;-61
2022/01/06 21:22:20;;;;;;;22.10;7.82;;;-0.70;99.90;;;;;;10344747;28;20072;-62
2022/01/06 21:27:22;;;;;;;24.95;9.25;;;-0.80;99.90;;;;;;10344275;28;20073;-61
2022/01/06 21:32:24;;;;;;;22.88;8.30;;;-0.70;99.90;;;;;;10349900;28;20096;-61
2022/01/06 21:37:25;;;;;;;17.42;7.82;;;-0.80;99.90;;;;;;10349640;28;20124;-61
2022/01/06 21:42:27;;;;;;;24.95;7.15;;;-0.80;99.90;;;;;;10343599;28;20096;-61
2022/01/06 21:47:29;;;;;;;27.95;7.28;;;-0.80;99.90;;;;;;10345762;28;20108;-60
2022/01/06 21:52:31;;;;;;;17.40;6.28;;;-0.70;99.90;;;;;;10342242;28;20050;-61
2022/01/06 21:57:33;;;;;;;22.98;6.90;;;-0.60;99.90;;;;;;10342349;28;20103;-62
2022/01/06 22:02:35;;;;;;;16.88;6.05;;;-0.70;99.90;;;;;;10341754;28;20050;-62
2022/01/06 22:07:37;;;;;;;19.33;6.40;;;-0.60;99.90;;;;;;10349112;28;20133;-61
2022/01/06 22:12:40;;;;;;;26.98;6.53;;;-0.70;99.90;;;;;;10339430;28;20111;-61
2022/01/06 22:17:42;;;;;;;28.17;6.07;;;-0.60;99.90;;;;;;10337416;28;20547;-61
2022/01/06 22:22:44;;;;;;;20.08;5.47;;;-0.60;99.90;;;;;;10350973;28;20452;-59
2022/01/06 22:27:48;;;;;;;23.02;5.72;;;-0.60;99.90;;;;;;10343515;28;20143;-58
2022/01/06 22:32:50;;;;;;;16.95;4.88;;;-0.60;99.90;;;;;;10342722;28;20507;-59
2022/01/06 22:37:54;;;;;;;19.17;5.32;;;-0.60;99.90;;;;;;10341400;28;20108;-60
2022/01/06 22:42:56;;;;;;;24.52;6.07;;;-0.60;99.90;;;;;;10339024;28;20049;-60
2022/01/06 22:47:58;;;;;;;26.17;6.95;;;-0.40;99.90;;;;;;10338553;28;20045;-61
2022/01/06 22:53:00;;;;;;;20.50;7.18;;;-0.40;99.90;;;;;;10333246;28;20137;-59
2022/01/06 22:58:02;;;;;;;23.48;6.93;;;-0.30;99.90;;;;;;10337606;28;20053;-59
2022/01/06 23:03:05;;;;;;;11.73;4.53;;;-0.10;99.90;;;;;;10341797;28;20054;-60
2022/01/06 23:08:07;;;;;;;15.73;4.82;;;0.00;99.90;;;;;;10335660;28;20046;-59
2022/01/06 23:13:09;;;;;;;10.13;4.40;;;0.10;99.90;;;;;;10337525;28;20393;-59
2022/01/06 23:18:10;;;;;;;14.10;4.70;;;0.10;99.90;;;;;;10341536;28;20114;-59
2022/01/06 23:23:15;;;;;;;17.30;4.35;;;0.10;99.90;;;;;;10339453;28;20057;-60
2022/01/06 23:28:19;;;;;;;19.65;3.80;;;0.10;99.90;;;;;;10339457;28;20558;-60
2022/01/06 23:33:21;;;;;;;14.48;4.07;;;0.10;99.90;;;;;;10331142;28;20061;-60
2022/01/06 23:38:23;;;;;;;11.55;4.40;;;0.20;99.90;;;;;;10337226;28;20089;-60
2022/01/06 23:43:26;;;;;;;16.00;5.00;;;0.20;99.90;;;;;;10337528;28;20500;-59
2022/01/06 23:48:28;;;;;;;16.15;4.18;;;0.20;99.90;;;;;;10334184;28;20478;-62
2022/01/06 23:53:30;;;;;;;12.10;3.40;;;0.20;99.90;;;;;;10340026;28;20050;-59
2022/01/06 23:58:32;;;;;;;16.92;4.53;;;0.20;99.90;;;;;;10337461;28;20986;-60
